createdAt,value
2017-12-05T00:00:21.450Z,39.07
2017-12-05T00:02:49.513Z,32.30
2017-12-05T00:05:17.801Z,28.93
2017-12-05T00:07:46.865Z,43.23
2017-12-05T00:10:15.249Z,26.53
2017-12-05T00:12:43.607Z,37.83
2017-12-05T00:15:12.042Z,40.93
2017-12-05T00:17:40.360Z,23.03
2017-12-05T00:20:08.704Z,30.70
2017-12-05T00:22:37.060Z,49.47
2017-12-05T00:25:06.196Z,39.37
2017-12-05T00:27:34.567Z,34.53
2017-12-05T00:30:02.962Z,36.50
2017-12-05T00:32:31.346Z,41.57
2017-12-05T00:34:59.710Z,39.50
2017-12-05T00:37:28.104Z,35.67
2017-12-05T00:39:56.530Z,34.20
2017-12-05T00:42:24.880Z,26.50
2017-12-05T00:44:53.287Z,32.67
2017-12-05T00:47:21.666Z,31.03
2017-12-05T00:49:50.007Z,37.83
2017-12-05T00:52:18.408Z,36.50
2017-12-05T00:54:46.739Z,36.07
2017-12-05T00:57:15.030Z,58.40
2017-12-05T00:59:43.326Z,31.10
2017-12-05T01:02:12.392Z,32.43
2017-12-05T01:04:40.728Z,35.17
2017-12-05T01:07:09.782Z,30.23
2017-12-05T01:09:38.077Z,41.53
2017-12-05T01:12:06.390Z,34.90
2017-12-05T01:14:34.687Z,32.33
2017-12-05T01:17:02.977Z,35.10
2017-12-05T01:19:31.263Z,39.23
2017-12-05T01:21:59.568Z,33.60
2017-12-05T01:24:28.659Z,46.67
2017-12-05T01:26:56.952Z,31.57
2017-12-05T01:29:25.243Z,37.03
2017-12-05T01:31:53.563Z,31.03
2017-12-05T01:34:21.853Z,30.40
2017-12-05T01:36:50.159Z,28.10
2017-12-05T01:39:18.490Z,31.10
2017-12-05T01:41:46.784Z,39.97
2017-12-05T01:44:15.071Z,29.57
2017-12-05T01:46:43.371Z,28.63
2017-12-05T01:49:11.671Z,30.90
2017-12-05T01:51:39.976Z,35.13
2017-12-05T01:54:08.452Z,30.33
2017-12-05T01:56:37.519Z,19.33
2017-12-05T01:59:05.821Z,35.43
2017-12-05T02:01:34.113Z,34.80
2017-12-05T02:04:02.408Z,41.43
2017-12-05T02:06:30.714Z,36.70
2017-12-05T02:08:59.861Z,29.83
2017-12-05T02:11:28.195Z,33.40
2017-12-05T02:13:56.572Z,38.67
2017-12-05T02:16:24.871Z,30.90
2017-12-05T02:18:53.155Z,29.03
2017-12-05T02:21:21.462Z,24.87
2017-12-05T02:23:50.546Z,40.07
2017-12-05T02:26:18.832Z,27.50
2017-12-05T02:28:47.126Z,26.97
2017-12-05T02:31:15.437Z,33.03
2017-12-05T02:33:44.510Z,25.63
2017-12-05T02:36:12.816Z,38.10
2017-12-05T02:38:41.187Z,27.43
2017-12-05T02:41:10.280Z,24.90
2017-12-05T02:43:38.581Z,17.30
2017-12-05T02:46:06.901Z,27.13
2017-12-05T02:48:35.960Z,25.23
2017-12-05T02:51:04.270Z,24.53
2017-12-05T02:53:32.624Z,20.43
2017-12-05T02:56:01.335Z,23.20
2017-12-05T02:58:29.994Z,21.23
2017-12-05T03:00:59.482Z,17.23
2017-12-05T03:03:28.218Z,19.13
2017-12-05T03:05:56.623Z,21.43
2017-12-05T03:08:24.912Z,18.53
2017-12-05T03:10:53.208Z,17.43
2017-12-05T03:13:21.515Z,20.00
2017-12-05T03:15:49.942Z,29.43
2017-12-05T03:18:18.229Z,25.27
2017-12-05T03:20:46.527Z,18.93
2017-12-05T03:23:14.826Z,16.80
2017-12-05T03:25:43.102Z,16.60
2017-12-05T03:28:11.537Z,26.93
2017-12-05T03:30:39.827Z,32.10
2017-12-05T03:33:08.110Z,22.17
2017-12-05T03:35:36.399Z,36.90
2017-12-05T03:38:04.757Z,23.30
2017-12-05T03:40:33.042Z,29.20
2017-12-05T03:43:01.364Z,18.70
2017-12-05T03:45:29.646Z,15.57
2017-12-05T03:47:57.961Z,23.87
2017-12-05T03:50:26.268Z,20.40
2017-12-05T03:52:54.560Z,30.20
2017-12-05T03:55:22.876Z,14.80
2017-12-05T03:57:51.927Z,20.27
2017-12-05T04:00:31.707Z,31.93
2017-12-05T04:03:00.012Z,24.10
2017-12-05T04:05:28.296Z,18.33
2017-12-05T04:07:56.589Z,19.00
2017-12-05T04:10:24.888Z,17.60
2017-12-05T04:12:53.182Z,21.60
2017-12-05T04:15:22.249Z,24.87
2017-12-05T04:17:50.542Z,25.63
2017-12-05T04:20:18.835Z,24.77
2017-12-05T04:22:47.110Z,27.23
2017-12-05T04:25:15.407Z,32.33
2017-12-05T04:27:43.703Z,15.10
2017-12-05T04:30:11.995Z,16.97
2017-12-05T04:32:40.303Z,20.97
2017-12-05T04:35:08.610Z,23.00
2017-12-05T04:37:37.654Z,19.43
2017-12-05T04:40:05.979Z,24.07
2017-12-05T04:42:34.292Z,24.30
2017-12-05T04:45:02.603Z,16.77
2017-12-05T04:47:30.952Z,18.73
2017-12-05T04:49:59.234Z,18.80
2017-12-05T04:52:27.737Z,22.63
2017-12-05T04:54:56.027Z,23.50
2017-12-05T04:57:25.099Z,25.10
2017-12-05T04:59:53.403Z,28.87
2017-12-05T05:02:21.765Z,33.03
2017-12-05T05:04:50.100Z,20.53
2017-12-05T05:07:18.435Z,19.60
2017-12-05T05:09:46.759Z,15.50
2017-12-05T05:12:15.418Z,23.77
2017-12-05T05:14:43.712Z,20.60
2017-12-05T05:17:12.019Z,19.60
2017-12-05T05:19:40.332Z,30.23
2017-12-05T05:22:10.540Z,19.57
2017-12-05T05:24:38.830Z,20.60
2017-12-05T05:27:07.123Z,19.00
2017-12-05T05:29:35.414Z,40.93
2017-12-05T05:32:03.715Z,21.40
2017-12-05T05:34:32.007Z,19.93
2017-12-05T05:37:00.301Z,22.13
2017-12-05T05:39:28.595Z,27.97
2017-12-05T05:41:56.877Z,20.47
2017-12-05T05:44:25.169Z,18.37
2017-12-05T05:46:53.465Z,23.20
2017-12-05T05:49:21.794Z,22.43
2017-12-05T05:51:50.141Z,24.87
2017-12-05T05:54:18.399Z,16.73
2017-12-05T05:56:46.694Z,24.10
2017-12-05T05:59:14.986Z,19.80
2017-12-05T06:01:43.278Z,22.07
2017-12-05T06:04:11.566Z,13.87
2017-12-05T06:06:39.890Z,26.23
2017-12-05T06:09:08.970Z,12.87
2017-12-05T06:11:37.273Z,17.03
2017-12-05T06:14:05.564Z,20.33
2017-12-05T06:16:33.892Z,21.17
2017-12-05T06:19:02.175Z,21.40
2017-12-05T06:21:30.503Z,21.23
2017-12-05T06:23:58.786Z,18.60
2017-12-05T06:26:27.098Z,18.27
2017-12-05T06:28:55.454Z,17.97
2017-12-05T06:31:23.739Z,14.97
2017-12-05T06:33:52.031Z,20.00
2017-12-05T06:36:20.339Z,13.60
2017-12-05T06:38:48.631Z,17.83
2017-12-05T06:41:16.951Z,14.50
2017-12-05T06:43:45.237Z,15.73
2017-12-05T06:46:13.539Z,17.97
2017-12-05T06:48:42.608Z,14.93
2017-12-05T06:51:10.918Z,18.70
2017-12-05T06:53:39.311Z,22.07
2017-12-05T06:56:08.475Z,18.30
2017-12-05T06:58:36.770Z,17.47
2017-12-05T07:01:05.075Z,11.90
2017-12-05T07:03:33.367Z,10.43
2017-12-05T07:06:01.676Z,8.83
2017-12-05T07:08:29.955Z,16.60
2017-12-05T07:10:58.292Z,16.80
2017-12-05T07:13:26.586Z,14.43
2017-12-05T07:15:55.649Z,11.67
2017-12-05T07:18:23.931Z,6.63
2017-12-05T07:20:52.225Z,12.10
2017-12-05T07:23:20.647Z,9.63
2017-12-05T07:25:49.698Z,11.00
2017-12-05T07:28:17.985Z,7.67
2017-12-05T07:30:46.286Z,10.77
2017-12-05T07:33:14.606Z,7.93
2017-12-05T07:35:43.686Z,11.63
2017-12-05T07:38:11.984Z,10.80
2017-12-05T07:40:40.282Z,15.50
2017-12-05T07:43:09.347Z,11.40
2017-12-05T07:45:37.640Z,10.20
2017-12-05T07:48:06.033Z,7.27
2017-12-05T07:50:34.380Z,14.80
2017-12-05T07:53:02.711Z,15.90
2017-12-05T07:55:31.123Z,8.97
2017-12-05T07:57:59.507Z,12.80
2017-12-05T08:00:27.888Z,13.90
2017-12-05T08:02:56.264Z,9.60
2017-12-05T08:05:24.656Z,10.70
2017-12-05T08:07:52.974Z,9.53
2017-12-05T08:10:22.098Z,8.37
2017-12-05T08:12:50.459Z,7.60
2017-12-05T08:15:18.846Z,10.30
2017-12-05T08:17:47.147Z,13.00
2017-12-05T08:20:15.443Z,9.43
2017-12-05T08:22:43.726Z,9.10
2017-12-05T08:25:12.062Z,9.53
2017-12-05T08:27:40.386Z,6.67
2017-12-05T08:30:08.695Z,10.30
2017-12-05T08:32:36.982Z,9.13
2017-12-05T08:35:05.303Z,11.57
2017-12-05T08:37:34.350Z,11.00
2017-12-05T08:40:02.658Z,19.80
2017-12-05T08:42:30.955Z,10.63
2017-12-05T08:44:59.263Z,44.80
2017-12-05T08:47:28.359Z,7.97
2017-12-05T08:49:56.650Z,11.80
2017-12-05T08:52:25.065Z,11.53
2017-12-05T08:54:54.123Z,11.50
2017-12-05T08:57:22.399Z,12.87
2017-12-05T08:59:50.719Z,10.90
2017-12-05T09:02:19.108Z,22.13
2017-12-05T09:04:47.484Z,7.33
2017-12-05T09:07:15.866Z,7.07
2017-12-05T09:09:44.291Z,10.53
2017-12-05T09:12:13.413Z,10.53
2017-12-05T09:14:42.533Z,7.40
2017-12-05T09:17:10.909Z,14.50
2017-12-05T09:19:39.415Z,9.50
2017-12-05T09:22:07.747Z,8.80
2017-12-05T09:24:36.049Z,10.90
2017-12-05T09:27:04.352Z,8.00
2017-12-05T09:29:32.687Z,12.40
2017-12-05T09:32:01.018Z,11.00
2017-12-05T09:34:29.357Z,10.53
2017-12-05T09:36:57.723Z,13.70
2017-12-05T09:39:26.124Z,12.77
2017-12-05T09:41:54.473Z,15.50
2017-12-05T09:44:22.797Z,14.50
2017-12-05T09:46:51.908Z,18.07
2017-12-05T09:49:21.057Z,11.80
2017-12-05T09:51:49.374Z,14.07
2017-12-05T09:54:17.715Z,13.30
2017-12-05T09:56:46.055Z,15.23
2017-12-05T09:59:14.442Z,15.30
2017-12-05T10:01:42.891Z,12.43
2017-12-05T10:04:11.249Z,11.40
2017-12-05T10:06:40.517Z,10.50
2017-12-05T10:09:08.895Z,16.63
2017-12-05T10:11:37.252Z,15.17
2017-12-05T10:14:05.606Z,11.83
2017-12-05T10:16:33.925Z,13.67
2017-12-05T10:19:03.144Z,14.03
2017-12-05T10:21:32.461Z,11.57
2017-12-05T10:24:01.548Z,10.70
2017-12-05T10:26:29.871Z,8.03
2017-12-05T10:28:58.206Z,11.43
2017-12-05T10:31:26.580Z,10.53
2017-12-05T10:33:54.960Z,9.37
2017-12-05T10:36:23.365Z,12.20
2017-12-05T10:38:51.712Z,12.63
2017-12-05T10:41:20.052Z,14.27
2017-12-05T10:43:48.432Z,10.03
2017-12-05T10:46:16.789Z,14.70
2017-12-05T10:48:45.153Z,15.83
2017-12-05T10:51:13.506Z,16.50
2017-12-05T10:53:41.865Z,16.30
2017-12-05T10:56:10.232Z,18.30
2017-12-05T10:58:38.710Z,20.70
2017-12-05T11:01:08.202Z,18.10
2017-12-05T11:03:36.508Z,25.63
2017-12-05T11:06:04.843Z,14.77
2017-12-05T11:08:33.143Z,18.30
2017-12-05T11:11:01.445Z,19.97
2017-12-05T11:13:29.760Z,23.10
2017-12-05T11:15:58.082Z,21.27
2017-12-05T11:18:27.158Z,22.80
2017-12-05T11:20:55.552Z,24.63
2017-12-05T11:23:23.828Z,21.13
2017-12-05T11:25:52.254Z,20.23
2017-12-05T11:28:21.309Z,23.03
2017-12-05T11:30:49.675Z,20.60
2017-12-05T11:33:17.953Z,17.40
2017-12-05T11:35:47.018Z,19.50
2017-12-05T11:38:15.323Z,25.90
2017-12-05T11:40:43.615Z,21.43
2017-12-05T11:43:11.958Z,19.00
2017-12-05T11:45:40.263Z,19.70
2017-12-05T11:48:08.574Z,17.63
2017-12-05T11:50:37.672Z,22.33
2017-12-05T11:53:05.977Z,18.73
2017-12-05T11:55:35.035Z,21.23
2017-12-05T11:58:03.326Z,17.03
2017-12-05T12:00:32.395Z,26.07
2017-12-05T12:03:01.473Z,17.30
2017-12-05T12:05:29.753Z,15.87
2017-12-05T12:07:58.050Z,17.10
2017-12-05T12:10:26.366Z,16.50
2017-12-05T12:12:55.422Z,17.30
2017-12-05T12:15:23.730Z,27.00
2017-12-05T12:17:52.052Z,20.10
2017-12-05T12:20:21.100Z,24.70
2017-12-05T12:22:49.528Z,20.40
2017-12-05T12:25:17.823Z,23.33
2017-12-05T12:27:46.122Z,20.30
2017-12-05T12:30:14.427Z,28.60
2017-12-05T12:32:43.496Z,18.90
2017-12-05T12:35:11.848Z,22.70
2017-12-05T12:37:40.157Z,18.57
2017-12-05T12:40:08.451Z,20.67
2017-12-05T12:42:36.754Z,15.70
2017-12-05T12:45:05.054Z,19.00
2017-12-05T12:47:33.376Z,18.50
2017-12-05T12:50:01.680Z,14.80
2017-12-05T12:52:29.975Z,18.37
2017-12-05T12:54:58.296Z,14.50
2017-12-05T12:57:26.579Z,25.57
2017-12-05T12:59:54.882Z,17.93
2017-12-05T13:02:23.176Z,20.07
2017-12-05T13:04:51.474Z,14.57
2017-12-05T13:07:19.767Z,18.77
2017-12-05T13:09:48.822Z,15.70
2017-12-05T13:12:17.140Z,17.30
2017-12-05T13:14:46.247Z,18.43
2017-12-05T13:17:14.804Z,17.87
2017-12-05T13:19:43.086Z,21.33
2017-12-05T13:22:11.410Z,16.27
2017-12-05T13:24:39.722Z,17.80
2017-12-05T13:27:08.031Z,17.03
2017-12-05T13:29:37.087Z,17.87
2017-12-05T13:32:05.441Z,18.33
2017-12-05T13:34:33.739Z,19.73
2017-12-05T13:37:02.046Z,18.47
2017-12-05T13:39:30.359Z,27.83
2017-12-05T13:41:58.656Z,24.80
2017-12-05T13:44:26.994Z,21.87
2017-12-05T13:46:55.312Z,22.83
2017-12-05T13:49:23.607Z,16.73
2017-12-05T13:51:51.924Z,15.30
2017-12-05T13:54:20.243Z,16.43
2017-12-05T13:56:48.539Z,17.50
2017-12-05T13:59:16.918Z,24.10
2017-12-05T14:01:45.206Z,18.60
2017-12-05T14:04:13.525Z,20.10
2017-12-05T14:06:42.015Z,15.50
2017-12-05T14:09:10.323Z,20.47
2017-12-05T14:11:38.621Z,19.23
2017-12-05T14:14:06.925Z,14.47
2017-12-05T14:16:35.214Z,19.10
2017-12-05T14:19:03.530Z,16.43
2017-12-05T14:21:31.865Z,20.30
2017-12-05T14:24:00.200Z,19.03
2017-12-05T14:26:29.283Z,13.97
2017-12-05T14:28:57.579Z,17.20
2017-12-05T14:31:25.886Z,17.50
2017-12-05T14:33:54.941Z,14.90
2017-12-05T14:36:23.262Z,15.57
2017-12-05T14:38:51.572Z,18.53
2017-12-05T14:41:20.630Z,12.40
2017-12-05T14:43:48.920Z,14.10
2017-12-05T14:46:17.210Z,14.23
2017-12-05T14:48:45.526Z,13.90
2017-12-05T14:51:13.876Z,17.53
2017-12-05T14:53:42.167Z,12.43
2017-12-05T14:56:10.485Z,12.77
2017-12-05T14:58:38.787Z,16.03
2017-12-05T15:01:07.884Z,15.70
2017-12-05T15:03:36.163Z,17.40
2017-12-05T15:06:04.491Z,16.80
2017-12-05T15:08:33.560Z,22.57
2017-12-05T15:11:01.851Z,17.80
2017-12-05T15:13:30.134Z,18.57
2017-12-05T15:15:58.463Z,16.60
2017-12-05T15:21:24.655Z,15.20
2017-12-05T15:23:59.090Z,17.20
2017-12-05T15:26:27.379Z,15.83
2017-12-05T15:28:55.706Z,13.23
2017-12-05T15:31:24.033Z,16.83
2017-12-05T15:33:53.087Z,16.03
2017-12-05T15:36:21.379Z,14.57
2017-12-05T15:38:49.683Z,17.73
2017-12-05T15:41:18.025Z,15.40
2017-12-05T15:43:46.306Z,16.30
2017-12-05T15:46:14.638Z,12.17
2017-12-05T15:48:42.931Z,12.20
2017-12-05T15:51:11.232Z,13.27
2017-12-05T15:53:39.524Z,24.30
2017-12-05T15:56:07.821Z,12.77
2017-12-05T15:58:36.245Z,13.70
2017-12-05T16:01:05.299Z,17.67
2017-12-05T16:03:33.600Z,21.47
2017-12-05T16:06:01.896Z,16.97
2017-12-05T16:08:30.195Z,12.27
2017-12-05T16:10:59.265Z,14.23
2017-12-05T16:13:27.555Z,27.83
2017-12-05T16:15:55.977Z,14.10
2017-12-05T16:18:24.277Z,12.50
2017-12-05T16:20:53.341Z,16.03
2017-12-05T16:23:21.638Z,15.70
2017-12-05T16:25:49.924Z,19.60
2017-12-05T16:28:18.995Z,14.93
2017-12-05T16:30:47.331Z,10.60
2017-12-05T16:33:15.639Z,13.10
2017-12-05T16:35:44.709Z,17.13
2017-12-05T16:38:13.016Z,15.00
2017-12-05T16:40:41.372Z,18.03
2017-12-05T16:43:09.703Z,17.10
2017-12-05T16:45:37.990Z,14.07
2017-12-05T16:48:06.283Z,16.40
2017-12-05T16:50:34.564Z,13.57
2017-12-05T16:53:02.899Z,13.20
2017-12-05T16:55:31.188Z,12.17
2017-12-05T16:57:59.478Z,14.70
2017-12-05T17:00:27.771Z,14.30
2017-12-05T17:02:56.156Z,16.80
2017-12-05T17:05:24.837Z,18.20
2017-12-05T17:07:53.971Z,14.70
2017-12-05T17:10:22.411Z,16.07
2017-12-05T17:12:51.519Z,11.50
2017-12-05T17:15:19.847Z,21.03
2017-12-05T17:17:48.223Z,14.63
2017-12-05T17:20:17.321Z,17.73
2017-12-05T17:22:46.439Z,15.73
2017-12-05T17:25:15.551Z,11.27
2017-12-05T17:27:43.915Z,15.40
2017-12-05T17:30:12.292Z,17.10
2017-12-05T17:32:40.633Z,14.70
2017-12-05T17:35:09.016Z,16.33
2017-12-05T17:37:38.149Z,21.77
2017-12-05T17:40:06.476Z,16.50
2017-12-05T17:42:34.803Z,14.20
2017-12-05T17:45:03.131Z,17.43
2017-12-05T17:47:31.537Z,21.00
2017-12-05T17:49:59.929Z,19.33
2017-12-05T17:52:29.115Z,14.10
2017-12-05T17:54:57.424Z,17.00
2017-12-05T17:57:25.718Z,16.20
2017-12-05T17:59:54.015Z,16.33
2017-12-05T18:02:22.307Z,14.20
2017-12-05T18:04:50.627Z,14.93
2017-12-05T18:07:19.696Z,14.87
2017-12-05T18:09:48.015Z,23.73
2017-12-05T18:12:17.118Z,14.93
2017-12-05T18:14:46.167Z,17.97
2017-12-05T18:17:14.450Z,22.43
2017-12-05T18:19:42.868Z,16.47
2017-12-05T18:22:11.315Z,17.70
2017-12-05T18:24:39.611Z,16.67
2017-12-05T18:27:07.916Z,15.43
2017-12-05T18:29:36.349Z,19.60
2017-12-05T18:32:04.707Z,22.40
2017-12-05T18:34:33.080Z,13.73
2017-12-05T18:37:01.442Z,18.37
2017-12-05T18:39:29.830Z,17.33
2017-12-05T18:41:58.934Z,14.07
2017-12-05T18:44:27.338Z,17.03
2017-12-05T18:46:56.410Z,15.67
2017-12-05T18:49:24.746Z,23.53
2017-12-05T18:51:53.034Z,16.97
2017-12-05T18:54:21.352Z,17.90
2017-12-05T18:56:49.760Z,20.90
2017-12-05T18:59:18.178Z,24.93
2017-12-05T19:01:46.514Z,16.40
2017-12-05T19:04:14.847Z,20.90
2017-12-05T19:06:43.938Z,20.73
2017-12-05T19:09:12.308Z,14.63
2017-12-05T19:11:40.806Z,22.43
2017-12-05T19:14:09.131Z,15.40
2017-12-05T19:16:38.244Z,20.90
2017-12-05T19:19:06.644Z,18.40
2017-12-05T19:21:35.771Z,17.77
2017-12-05T19:24:04.118Z,21.70
2017-12-05T19:26:33.264Z,23.27
2017-12-05T19:29:01.614Z,20.77
2017-12-05T19:31:29.990Z,24.00
2017-12-05T19:33:58.493Z,21.80
2017-12-05T19:36:26.884Z,16.87
2017-12-05T19:38:55.225Z,20.60
2017-12-05T19:41:23.561Z,22.40
2017-12-05T19:43:51.904Z,18.67
2017-12-05T19:46:20.284Z,17.23
2017-12-05T19:48:49.431Z,20.57
2017-12-05T19:51:17.791Z,21.20
2017-12-05T19:53:46.132Z,24.30
2017-12-05T19:56:14.455Z,19.47
2017-12-05T19:58:43.612Z,21.93
2017-12-05T20:01:12.012Z,24.00
2017-12-05T20:03:40.350Z,23.00
2017-12-05T20:06:09.493Z,20.80
2017-12-05T20:08:37.786Z,19.37
2017-12-05T20:11:06.077Z,22.10
2017-12-05T20:13:34.390Z,17.03
2017-12-05T20:16:02.687Z,21.30
2017-12-05T20:18:30.990Z,21.30
2017-12-05T20:20:59.325Z,18.07
2017-12-05T20:23:27.616Z,23.70
2017-12-05T20:25:55.905Z,20.90
2017-12-05T20:28:24.215Z,25.23
2017-12-05T20:30:52.536Z,17.90
2017-12-05T20:33:20.867Z,22.50
2017-12-05T20:35:49.968Z,17.70
2017-12-05T20:38:18.260Z,20.03
2017-12-05T20:40:46.581Z,19.03
2017-12-05T20:43:14.879Z,20.60
2017-12-05T20:45:43.233Z,11.43
2017-12-05T20:48:11.556Z,15.70
2017-12-05T20:50:39.659Z,19.70
2017-12-05T20:53:07.710Z,15.03
2017-12-05T20:55:35.759Z,13.17
2017-12-05T20:58:03.822Z,16.07
2017-12-05T21:00:31.895Z,13.60
2017-12-05T21:02:59.971Z,15.60
2017-12-05T21:05:28.047Z,15.20
2017-12-05T21:07:56.107Z,19.63
2017-12-05T21:10:24.147Z,15.53
2017-12-05T21:12:52.220Z,13.90
2017-12-05T21:15:21.111Z,14.00
2017-12-05T21:17:49.153Z,16.70
2017-12-05T21:20:17.971Z,14.77
2017-12-05T21:22:46.026Z,10.70
2017-12-05T21:25:14.871Z,12.53
2017-12-05T21:27:42.915Z,10.80
2017-12-05T21:30:11.722Z,17.00
2017-12-05T21:32:40.569Z,16.40
2017-12-05T21:35:08.615Z,15.50
2017-12-05T21:37:36.667Z,16.00
2017-12-05T21:40:04.727Z,13.00
2017-12-05T21:42:32.778Z,20.50
2017-12-05T21:45:00.855Z,11.47
2017-12-05T21:47:29.043Z,20.97
2017-12-05T21:49:57.082Z,14.17
2017-12-05T21:52:25.134Z,9.03
2017-12-05T21:54:53.184Z,11.00
2017-12-05T21:57:21.239Z,10.23
2017-12-05T21:59:49.322Z,12.50
2017-12-05T22:02:18.151Z,11.00
2017-12-05T22:04:46.200Z,8.80
2017-12-05T22:07:14.256Z,10.70
2017-12-05T22:09:42.564Z,5.93
2017-12-05T22:12:10.870Z,5.50
2017-12-05T22:14:39.165Z,8.53
2017-12-05T22:17:07.445Z,8.63
2017-12-05T22:19:35.726Z,12.20
2017-12-05T22:22:04.062Z,12.73
2017-12-05T22:24:32.357Z,6.80
2017-12-05T22:27:00.662Z,12.37
2017-12-05T22:29:28.943Z,10.27
2017-12-05T22:31:57.223Z,6.83
2017-12-05T22:34:25.507Z,11.07
2017-12-05T22:36:53.818Z,16.23
2017-12-05T22:39:22.114Z,7.63
2017-12-05T22:41:51.186Z,15.00
2017-12-05T22:44:19.500Z,6.83
2017-12-05T22:46:48.565Z,10.17
2017-12-05T22:49:16.873Z,9.97
2017-12-05T22:51:45.191Z,9.33
2017-12-05T22:54:14.282Z,8.47
2017-12-05T22:56:42.584Z,10.63
2017-12-05T22:59:10.868Z,10.87
2017-12-05T23:01:39.170Z,8.50
2017-12-05T23:04:08.214Z,10.70
2017-12-05T23:06:36.539Z,5.03
2017-12-05T23:09:04.820Z,8.50
2017-12-05T23:11:33.138Z,6.67
2017-12-05T23:14:01.422Z,8.77
2017-12-05T23:16:30.491Z,6.03
2017-12-05T23:18:58.778Z,9.03
2017-12-05T23:21:27.980Z,14.00
2017-12-05T23:23:56.266Z,11.87
2017-12-05T23:26:24.556Z,6.20
2017-12-05T23:28:52.841Z,9.23
2017-12-05T23:31:21.168Z,8.60
2017-12-05T23:33:49.454Z,10.70
2017-12-05T23:36:17.758Z,8.00
2017-12-05T23:38:46.055Z,10.23
2017-12-05T23:41:15.138Z,6.40
2017-12-05T23:43:43.419Z,9.93
2017-12-05T23:46:11.708Z,11.13
2017-12-05T23:48:40.008Z,7.83
2017-12-05T23:51:08.292Z,10.03
2017-12-05T23:53:36.805Z,6.73
2017-12-05T23:56:05.126Z,8.33
2017-12-05T23:58:33.414Z,7.03
